sensor_id;sensor_type;location;lat;lon;timestamp;P1;durP1;ratioP1;P2;durP2;ratioP2
23155;SDS011;11746;50.876;4.246;2023-02-28T00:01:14;9.57;;;4.88;;
23155;SDS011;11746;50.876;4.246;2023-02-28T00:03:41;8.45;;;4.32;;
23155;SDS011;11746;50.876;4.246;2023-02-28T00:06:07;9.80;;;4.10;;
23155;SDS011;11746;50.876;4.246;2023-02-28T00:08:34;7.00;;;4.30;;
23155;SDS011;11746;50.876;4.246;2023-02-28T00:11:02;9.80;;;4.22;;
23155;SDS011;11746;50.876;4.246;2023-02-28T00:13:29;7.75;;;4.25;;
23155;SDS011;11746;50.876;4.246;2023-02-28T00:16:03;7.75;;;4.38;;
23155;SDS011;11746;50.876;4.246;2023-02-28T00:20:57;5.80;;;3.70;;
23155;SDS011;11746;50.876;4.246;2023-02-28T00:23:23;9.27;;;4.82;;
23155;SDS011;11746;50.876;4.246;2023-02-28T00:25:50;6.95;;;3.90;;
23155;SDS011;11746;50.876;4.246;2023-02-28T00:28:16;9.02;;;4.97;;
23155;SDS011;11746;50.876;4.246;2023-02-28T00:30:42;6.90;;;4.35;;
23155;SDS011;11746;50.876;4.246;2023-02-28T00:33:09;7.85;;;4.25;;
23155;SDS011;11746;50.876;4.246;2023-02-28T00:35:35;9.48;;;4.60;;
23155;SDS011;11746;50.876;4.246;2023-02-28T00:38:01;7.90;;;4.25;;
23155;SDS011;11746;50.876;4.246;2023-02-28T00:40:27;5.80;;;3.88;;
23155;SDS011;11746;50.876;4.246;2023-02-28T00:42:54;8.20;;;4.40;;
23155;SDS011;11746;50.876;4.246;2023-02-28T00:45:20;9.07;;;4.60;;
23155;SDS011;11746;50.876;4.246;2023-02-28T00:47:46;8.43;;;4.90;;
23155;SDS011;11746;50.876;4.246;2023-02-28T00:50:15;9.18;;;5.20;;
23155;SDS011;11746;50.876;4.246;2023-02-28T00:52:45;10.25;;;5.43;;
23155;SDS011;11746;50.876;4.246;2023-02-28T00:55:11;10.23;;;5.50;;
23155;SDS011;11746;50.876;4.246;2023-02-28T00:57:37;10.63;;;5.60;;
23155;SDS011;11746;50.876;4.246;2023-02-28T01:00:03;10.95;;;5.18;;
23155;SDS011;11746;50.876;4.246;2023-02-28T01:02:30;8.68;;;5.30;;
23155;SDS011;11746;50.876;4.246;2023-02-28T01:04:56;8.52;;;5.13;;
23155;SDS011;11746;50.876;4.246;2023-02-28T01:07:22;8.70;;;5.00;;
23155;SDS011;11746;50.876;4.246;2023-02-28T01:09:48;9.18;;;5.05;;
23155;SDS011;11746;50.876;4.246;2023-02-28T01:12:14;11.18;;;5.10;;
23155;SDS011;11746;50.876;4.246;2023-02-28T01:14:40;8.38;;;5.53;;
23155;SDS011;11746;50.876;4.246;2023-02-28T01:17:06;9.75;;;5.30;;
23155;SDS011;11746;50.876;4.246;2023-02-28T01:19:33;9.00;;;5.20;;
23155;SDS011;11746;50.876;4.246;2023-02-28T01:22:03;9.02;;;4.45;;
23155;SDS011;11746;50.876;4.246;2023-02-28T01:24:30;7.82;;;5.15;;
23155;SDS011;11746;50.876;4.246;2023-02-28T01:26:57;7.78;;;4.80;;
23155;SDS011;11746;50.876;4.246;2023-02-28T01:29:22;8.38;;;4.90;;
23155;SDS011;11746;50.876;4.246;2023-02-28T01:31:48;8.05;;;4.47;;
23155;SDS011;11746;50.876;4.246;2023-02-28T01:34:14;8.63;;;4.80;;
23155;SDS011;11746;50.876;4.246;2023-02-28T01:36:40;7.50;;;4.65;;
23155;SDS011;11746;50.876;4.246;2023-02-28T01:39:06;10.35;;;5.22;;
23155;SDS011;11746;50.876;4.246;2023-02-28T01:41:33;10.80;;;5.53;;
23155;SDS011;11746;50.876;4.246;2023-02-28T01:44:04;9.48;;;5.35;;
23155;SDS011;11746;50.876;4.246;2023-02-28T01:46:33;7.90;;;4.68;;
23155;SDS011;11746;50.876;4.246;2023-02-28T01:51:40;9.57;;;5.13;;
23155;SDS011;11746;50.876;4.246;2023-02-28T01:54:16;9.00;;;5.57;;
23155;SDS011;11746;50.876;4.246;2023-02-28T01:57:10;11.57;;;6.10;;
23155;SDS011;11746;50.876;4.246;2023-02-28T01:59:48;7.95;;;5.72;;
23155;SDS011;11746;50.876;4.246;2023-02-28T02:02:23;8.18;;;5.15;;
23155;SDS011;11746;50.876;4.246;2023-02-28T02:05:06;8.25;;;5.38;;
23155;SDS011;11746;50.876;4.246;2023-02-28T02:07:35;6.93;;;5.30;;
23155;SDS011;11746;50.876;4.246;2023-02-28T02:18:53;8.63;;;5.63;;
23155;SDS011;11746;50.876;4.246;2023-02-28T02:23:54;10.57;;;6.18;;
23155;SDS011;11746;50.876;4.246;2023-02-28T02:26:41;9.23;;;5.88;;
23155;SDS011;11746;50.876;4.246;2023-02-28T02:32:10;6.93;;;5.40;;
23155;SDS011;11746;50.876;4.246;2023-02-28T02:37:51;8.68;;;5.10;;
23155;SDS011;11746;50.876;4.246;2023-02-28T02:40:25;7.97;;;6.03;;
23155;SDS011;11746;50.876;4.246;2023-02-28T02:47:53;10.27;;;6.00;;
23155;SDS011;11746;50.876;4.246;2023-02-28T02:50:26;9.68;;;6.15;;
23155;SDS011;11746;50.876;4.246;2023-02-28T02:52:59;8.98;;;6.00;;
23155;SDS011;11746;50.876;4.246;2023-02-28T02:55:27;9.38;;;5.65;;
23155;SDS011;11746;50.876;4.246;2023-02-28T02:57:56;9.20;;;5.43;;
23155;SDS011;11746;50.876;4.246;2023-02-28T03:00:48;10.50;;;6.22;;
23155;SDS011;11746;50.876;4.246;2023-02-28T03:03:15;10.10;;;5.95;;
23155;SDS011;11746;50.876;4.246;2023-02-28T03:05:46;9.55;;;5.90;;
23155;SDS011;11746;50.876;4.246;2023-02-28T03:08:14;13.43;;;6.38;;
23155;SDS011;11746;50.876;4.246;2023-02-28T03:10:42;10.63;;;6.25;;
23155;SDS011;11746;50.876;4.246;2023-02-28T03:16:03;9.82;;;6.55;;
23155;SDS011;11746;50.876;4.246;2023-02-28T03:30:33;14.05;;;6.60;;
23155;SDS011;11746;50.876;4.246;2023-02-28T03:33:30;8.57;;;5.90;;
23155;SDS011;11746;50.876;4.246;2023-02-28T03:36:05;10.25;;;6.88;;
23155;SDS011;11746;50.876;4.246;2023-02-28T03:39:05;9.52;;;6.22;;
23155;SDS011;11746;50.876;4.246;2023-02-28T03:41:46;9.63;;;6.13;;
23155;SDS011;11746;50.876;4.246;2023-02-28T03:44:18;9.70;;;6.60;;
23155;SDS011;11746;50.876;4.246;2023-02-28T03:46:50;11.55;;;6.25;;
23155;SDS011;11746;50.876;4.246;2023-02-28T03:49:34;11.23;;;6.43;;
23155;SDS011;11746;50.876;4.246;2023-02-28T03:52:08;10.38;;;6.45;;
23155;SDS011;11746;50.876;4.246;2023-02-28T03:54:37;13.13;;;6.38;;
23155;SDS011;11746;50.876;4.246;2023-02-28T03:57:12;11.32;;;6.63;;
23155;SDS011;11746;50.876;4.246;2023-02-28T03:59:49;8.43;;;6.07;;
23155;SDS011;11746;50.876;4.246;2023-02-28T04:02:22;10.73;;;6.72;;
23155;SDS011;11746;50.876;4.246;2023-02-28T04:04:48;11.75;;;6.63;;
23155;SDS011;11746;50.876;4.246;2023-02-28T04:07:14;11.35;;;6.60;;
23155;SDS011;11746;50.876;4.246;2023-02-28T04:09:41;9.20;;;6.20;;
23155;SDS011;11746;50.876;4.246;2023-02-28T04:12:07;13.10;;;6.68;;
23155;SDS011;11746;50.876;4.246;2023-02-28T04:14:33;8.38;;;5.85;;
23155;SDS011;11746;50.876;4.246;2023-02-28T04:16:59;10.35;;;7.15;;
23155;SDS011;11746;50.876;4.246;2023-02-28T04:19:25;12.52;;;6.32;;
23155;SDS011;11746;50.876;4.246;2023-02-28T04:21:51;10.02;;;6.45;;
23155;SDS011;11746;50.876;4.246;2023-02-28T04:24:19;14.40;;;7.30;;
23155;SDS011;11746;50.876;4.246;2023-02-28T04:26:48;9.90;;;6.47;;
23155;SDS011;11746;50.876;4.246;2023-02-28T04:29:20;12.30;;;6.50;;
23155;SDS011;11746;50.876;4.246;2023-02-28T04:31:49;10.88;;;6.80;;
23155;SDS011;11746;50.876;4.246;2023-02-28T04:34:15;9.25;;;5.82;;
23155;SDS011;11746;50.876;4.246;2023-02-28T04:36:41;9.57;;;6.22;;
23155;SDS011;11746;50.876;4.246;2023-02-28T04:39:07;11.55;;;6.63;;
23155;SDS011;11746;50.876;4.246;2023-02-28T04:41:34;15.60;;;8.50;;
23155;SDS011;11746;50.876;4.246;2023-02-28T04:44:00;11.45;;;6.47;;
23155;SDS011;11746;50.876;4.246;2023-02-28T04:46:26;8.80;;;6.18;;
23155;SDS011;11746;50.876;4.246;2023-02-28T04:48:52;12.00;;;6.65;;
23155;SDS011;11746;50.876;4.246;2023-02-28T04:51:19;10.85;;;6.55;;
23155;SDS011;11746;50.876;4.246;2023-02-28T04:53:46;9.32;;;6.60;;
23155;SDS011;11746;50.876;4.246;2023-02-28T04:56:13;10.35;;;6.35;;
23155;SDS011;11746;50.876;4.246;2023-02-28T04:58:41;9.65;;;6.82;;
23155;SDS011;11746;50.876;4.246;2023-02-28T05:01:21;10.50;;;7.45;;
23155;SDS011;11746;50.876;4.246;2023-02-28T05:03:49;7.88;;;6.43;;
23155;SDS011;11746;50.876;4.246;2023-02-28T05:06:16;10.88;;;6.18;;
23155;SDS011;11746;50.876;4.246;2023-02-28T05:08:43;10.07;;;7.13;;
23155;SDS011;11746;50.876;4.246;2023-02-28T05:13:46;9.77;;;6.65;;
23155;SDS011;11746;50.876;4.246;2023-02-28T05:16:13;10.50;;;6.80;;
23155;SDS011;11746;50.876;4.246;2023-02-28T05:18:39;8.90;;;6.65;;
23155;SDS011;11746;50.876;4.246;2023-02-28T05:21:05;10.27;;;6.85;;
23155;SDS011;11746;50.876;4.246;2023-02-28T05:23:44;13.55;;;6.95;;
23155;SDS011;11746;50.876;4.246;2023-02-28T05:26:10;11.95;;;6.90;;
23155;SDS011;11746;50.876;4.246;2023-02-28T05:28:36;10.88;;;6.93;;
23155;SDS011;11746;50.876;4.246;2023-02-28T05:31:02;13.43;;;7.45;;
23155;SDS011;11746;50.876;4.246;2023-02-28T05:33:28;10.65;;;6.88;;
23155;SDS011;11746;50.876;4.246;2023-02-28T05:35:54;11.90;;;6.97;;
23155;SDS011;11746;50.876;4.246;2023-02-28T05:38:20;12.18;;;6.90;;
23155;SDS011;11746;50.876;4.246;2023-02-28T05:40:46;8.38;;;6.20;;
23155;SDS011;11746;50.876;4.246;2023-02-28T05:43:12;12.60;;;6.43;;
23155;SDS011;11746;50.876;4.246;2023-02-28T05:45:38;11.15;;;6.88;;
23155;SDS011;11746;50.876;4.246;2023-02-28T05:48:04;11.23;;;6.35;;
23155;SDS011;11746;50.876;4.246;2023-02-28T05:50:30;10.27;;;6.55;;
23155;SDS011;11746;50.876;4.246;2023-02-28T05:52:56;11.20;;;6.90;;
23155;SDS011;11746;50.876;4.246;2023-02-28T05:55:22;10.77;;;6.93;;
23155;SDS011;11746;50.876;4.246;2023-02-28T05:57:48;11.32;;;6.82;;
23155;SDS011;11746;50.876;4.246;2023-02-28T06:00:14;10.63;;;6.82;;
23155;SDS011;11746;50.876;4.246;2023-02-28T06:02:40;9.85;;;6.30;;
23155;SDS011;11746;50.876;4.246;2023-02-28T06:05:13;11.35;;;6.82;;
23155;SDS011;11746;50.876;4.246;2023-02-28T06:07:40;13.88;;;7.45;;
23155;SDS011;11746;50.876;4.246;2023-02-28T06:10:06;7.60;;;6.25;;
23155;SDS011;11746;50.876;4.246;2023-02-28T06:12:32;10.57;;;6.85;;
23155;SDS011;11746;50.876;4.246;2023-02-28T06:14:58;9.02;;;6.80;;
23155;SDS011;11746;50.876;4.246;2023-02-28T06:17:24;9.80;;;6.05;;
23155;SDS011;11746;50.876;4.246;2023-02-28T06:19:49;10.05;;;6.25;;
23155;SDS011;11746;50.876;4.246;2023-02-28T06:22:15;12.10;;;6.80;;
23155;SDS011;11746;50.876;4.246;2023-02-28T06:24:41;9.35;;;6.57;;
23155;SDS011;11746;50.876;4.246;2023-02-28T06:27:07;12.23;;;6.47;;
23155;SDS011;11746;50.876;4.246;2023-02-28T06:29:33;12.43;;;7.05;;
23155;SDS011;11746;50.876;4.246;2023-02-28T06:32:00;9.57;;;6.65;;
23155;SDS011;11746;50.876;4.246;2023-02-28T06:34:26;9.30;;;6.88;;
23155;SDS011;11746;50.876;4.246;2023-02-28T06:36:55;11.70;;;6.63;;
23155;SDS011;11746;50.876;4.246;2023-02-28T06:39:21;9.43;;;6.45;;
23155;SDS011;11746;50.876;4.246;2023-02-28T06:41:47;9.20;;;6.57;;
23155;SDS011;11746;50.876;4.246;2023-02-28T06:44:14;9.38;;;6.10;;
23155;SDS011;11746;50.876;4.246;2023-02-28T06:46:41;10.45;;;5.70;;
23155;SDS011;11746;50.876;4.246;2023-02-28T06:49:08;12.35;;;6.78;;
23155;SDS011;11746;50.876;4.246;2023-02-28T06:51:35;10.23;;;6.20;;
23155;SDS011;11746;50.876;4.246;2023-02-28T06:54:03;11.63;;;6.57;;
23155;SDS011;11746;50.876;4.246;2023-02-28T06:56:29;10.13;;;6.13;;
23155;SDS011;11746;50.876;4.246;2023-02-28T06:58:55;10.52;;;6.25;;
23155;SDS011;11746;50.876;4.246;2023-02-28T07:01:22;12.93;;;6.25;;
23155;SDS011;11746;50.876;4.246;2023-02-28T07:03:49;8.15;;;6.25;;
23155;SDS011;11746;50.876;4.246;2023-02-28T07:06:26;10.70;;;6.13;;
23155;SDS011;11746;50.876;4.246;2023-02-28T07:08:52;7.40;;;5.93;;
23155;SDS011;11746;50.876;4.246;2023-02-28T07:11:20;10.68;;;6.10;;
23155;SDS011;11746;50.876;4.246;2023-02-28T07:13:48;11.63;;;6.50;;
23155;SDS011;11746;50.876;4.246;2023-02-28T07:16:15;7.97;;;6.68;;
23155;SDS011;11746;50.876;4.246;2023-02-28T07:18:41;11.52;;;6.47;;
23155;SDS011;11746;50.876;4.246;2023-02-28T07:21:08;9.10;;;6.53;;
23155;SDS011;11746;50.876;4.246;2023-02-28T07:23:35;10.02;;;6.45;;
23155;SDS011;11746;50.876;4.246;2023-02-28T07:26:03;10.93;;;6.22;;
23155;SDS011;11746;50.876;4.246;2023-02-28T07:28:30;13.32;;;6.75;;
23155;SDS011;11746;50.876;4.246;2023-02-28T07:30:56;11.25;;;6.47;;
23155;SDS011;11746;50.876;4.246;2023-02-28T07:33:22;8.23;;;5.90;;
23155;SDS011;11746;50.876;4.246;2023-02-28T07:35:49;10.50;;;6.65;;
23155;SDS011;11746;50.876;4.246;2023-02-28T07:38:15;10.70;;;5.97;;
23155;SDS011;11746;50.876;4.246;2023-02-28T07:40:41;8.27;;;5.93;;
23155;SDS011;11746;50.876;4.246;2023-02-28T07:43:06;10.20;;;6.53;;
23155;SDS011;11746;50.876;4.246;2023-02-28T07:45:33;9.07;;;6.15;;
23155;SDS011;11746;50.876;4.246;2023-02-28T07:47:59;7.75;;;5.88;;
23155;SDS011;11746;50.876;4.246;2023-02-28T07:50:25;9.45;;;5.95;;
23155;SDS011;11746;50.876;4.246;2023-02-28T07:52:59;10.63;;;6.10;;
23155;SDS011;11746;50.876;4.246;2023-02-28T07:55:26;9.13;;;6.45;;
23155;SDS011;11746;50.876;4.246;2023-02-28T07:57:52;10.70;;;6.18;;
23155;SDS011;11746;50.876;4.246;2023-02-28T08:00:18;10.13;;;5.82;;
23155;SDS011;11746;50.876;4.246;2023-02-28T08:02:44;9.60;;;5.60;;
23155;SDS011;11746;50.876;4.246;2023-02-28T08:05:10;10.70;;;5.78;;
23155;SDS011;11746;50.876;4.246;2023-02-28T08:07:36;11.13;;;6.22;;
23155;SDS011;11746;50.876;4.246;2023-02-28T08:10:02;10.13;;;6.00;;
23155;SDS011;11746;50.876;4.246;2023-02-28T08:12:30;10.05;;;5.65;;
23155;SDS011;11746;50.876;4.246;2023-02-28T08:14:56;8.13;;;5.25;;
23155;SDS011;11746;50.876;4.246;2023-02-28T08:17:22;8.57;;;5.75;;
23155;SDS011;11746;50.876;4.246;2023-02-28T08:19:48;9.23;;;5.07;;
23155;SDS011;11746;50.876;4.246;2023-02-28T08:22:14;10.68;;;5.88;;
23155;SDS011;11746;50.876;4.246;2023-02-28T08:24:43;9.63;;;5.30;;
23155;SDS011;11746;50.876;4.246;2023-02-28T08:27:09;7.65;;;3.92;;
23155;SDS011;11746;50.876;4.246;2023-02-28T08:29:38;8.57;;;4.20;;
23155;SDS011;11746;50.876;4.246;2023-02-28T08:32:04;6.75;;;3.55;;
23155;SDS011;11746;50.876;4.246;2023-02-28T08:34:31;4.75;;;3.40;;
23155;SDS011;11746;50.876;4.246;2023-02-28T08:36:59;7.70;;;3.08;;
23155;SDS011;11746;50.876;4.246;2023-02-28T08:39:25;6.13;;;2.95;;
23155;SDS011;11746;50.876;4.246;2023-02-28T08:41:53;7.00;;;2.83;;
23155;SDS011;11746;50.876;4.246;2023-02-28T08:44:21;4.63;;;2.92;;
23155;SDS011;11746;50.876;4.246;2023-02-28T08:46:47;5.97;;;2.85;;
23155;SDS011;11746;50.876;4.246;2023-02-28T08:49:15;7.70;;;2.70;;
23155;SDS011;11746;50.876;4.246;2023-02-28T08:51:41;5.05;;;3.00;;
23155;SDS011;11746;50.876;4.246;2023-02-28T08:54:07;7.85;;;2.50;;
23155;SDS011;11746;50.876;4.246;2023-02-28T08:56:33;6.07;;;2.90;;
23155;SDS011;11746;50.876;4.246;2023-02-28T08:58:59;4.93;;;2.90;;
23155;SDS011;11746;50.876;4.246;2023-02-28T09:01:26;4.50;;;2.83;;
23155;SDS011;11746;50.876;4.246;2023-02-28T09:03:56;3.65;;;2.38;;
23155;SDS011;11746;50.876;4.246;2023-02-28T09:06:24;4.97;;;2.75;;
23155;SDS011;11746;50.876;4.246;2023-02-28T09:08:51;4.28;;;2.42;;
23155;SDS011;11746;50.876;4.246;2023-02-28T09:11:19;4.57;;;2.42;;
23155;SDS011;11746;50.876;4.246;2023-02-28T09:13:47;2.97;;;1.92;;
23155;SDS011;11746;50.876;4.246;2023-02-28T09:16:14;4.22;;;2.00;;
23155;SDS011;11746;50.876;4.246;2023-02-28T09:18:41;3.20;;;1.83;;
23155;SDS011;11746;50.876;4.246;2023-02-28T09:21:09;3.30;;;1.85;;
23155;SDS011;11746;50.876;4.246;2023-02-28T09:23:39;4.47;;;2.40;;
23155;SDS011;11746;50.876;4.246;2023-02-28T09:26:06;3.72;;;2.10;;
23155;SDS011;11746;50.876;4.246;2023-02-28T09:28:33;3.05;;;1.73;;
23155;SDS011;11746;50.876;4.246;2023-02-28T09:30:59;5.22;;;1.83;;
23155;SDS011;11746;50.876;4.246;2023-02-28T09:33:26;4.40;;;1.70;;
23155;SDS011;11746;50.876;4.246;2023-02-28T09:35:58;2.58;;;2.17;;
23155;SDS011;11746;50.876;4.246;2023-02-28T09:38:25;4.10;;;2.13;;
23155;SDS011;11746;50.876;4.246;2023-02-28T09:40:53;11.02;;;2.25;;
23155;SDS011;11746;50.876;4.246;2023-02-28T09:43:26;4.63;;;2.25;;
23155;SDS011;11746;50.876;4.246;2023-02-28T09:46:02;3.55;;;2.10;;
23155;SDS011;11746;50.876;4.246;2023-02-28T09:48:38;5.15;;;2.25;;
23155;SDS011;11746;50.876;4.246;2023-02-28T09:53:55;4.75;;;1.98;;
23155;SDS011;11746;50.876;4.246;2023-02-28T09:56:23;6.32;;;2.38;;
23155;SDS011;11746;50.876;4.246;2023-02-28T09:58:57;5.05;;;2.83;;
23155;SDS011;11746;50.876;4.246;2023-02-28T10:01:34;4.78;;;2.35;;
23155;SDS011;11746;50.876;4.246;2023-02-28T10:07:02;3.65;;;1.80;;
23155;SDS011;11746;50.876;4.246;2023-02-28T10:09:42;2.60;;;1.80;;
23155;SDS011;11746;50.876;4.246;2023-02-28T10:12:14;4.10;;;2.10;;
23155;SDS011;11746;50.876;4.246;2023-02-28T10:14:42;6.97;;;3.10;;
23155;SDS011;11746;50.876;4.246;2023-02-28T10:17:13;7.57;;;2.47;;
23155;SDS011;11746;50.876;4.246;2023-02-28T10:22:28;3.13;;;1.83;;
23155;SDS011;11746;50.876;4.246;2023-02-28T10:25:01;3.88;;;2.42;;
23155;SDS011;11746;50.876;4.246;2023-02-28T10:27:36;4.13;;;1.88;;
23155;SDS011;11746;50.876;4.246;2023-02-28T10:30:02;4.97;;;1.95;;
23155;SDS011;11746;50.876;4.246;2023-02-28T10:32:29;3.65;;;1.77;;
23155;SDS011;11746;50.876;4.246;2023-02-28T10:37:40;5.60;;;2.05;;
23155;SDS011;11746;50.876;4.246;2023-02-28T10:40:25;1.85;;;1.60;;
23155;SDS011;11746;50.876;4.246;2023-02-28T10:42:57;4.75;;;2.00;;
23155;SDS011;11746;50.876;4.246;2023-02-28T10:45:23;4.50;;;1.60;;
23155;SDS011;11746;50.876;4.246;2023-02-28T10:47:57;3.78;;;1.50;;
23155;SDS011;11746;50.876;4.246;2023-02-28T10:50:46;6.53;;;2.00;;
23155;SDS011;11746;50.876;4.246;2023-02-28T10:58:26;3.63;;;1.75;;
23155;SDS011;11746;50.876;4.246;2023-02-28T11:00:54;1.95;;;1.20;;
23155;SDS011;11746;50.876;4.246;2023-02-28T11:03:28;3.50;;;1.50;;
23155;SDS011;11746;50.876;4.246;2023-02-28T11:05:56;3.78;;;1.40;;
23155;SDS011;11746;50.876;4.246;2023-02-28T11:08:23;3.10;;;1.23;;
23155;SDS011;11746;50.876;4.246;2023-02-28T11:10:56;1.55;;;1.20;;
23155;SDS011;11746;50.876;4.246;2023-02-28T11:13:31;2.50;;;1.35;;
23155;SDS011;11746;50.876;4.246;2023-02-28T11:16:00;2.83;;;1.40;;
23155;SDS011;11746;50.876;4.246;2023-02-28T11:18:30;3.55;;;1.58;;
23155;SDS011;11746;50.876;4.246;2023-02-28T11:21:05;2.90;;;1.35;;
23155;SDS011;11746;50.876;4.246;2023-02-28T11:23:33;2.10;;;1.40;;
23155;SDS011;11746;50.876;4.246;2023-02-28T11:26:02;3.53;;;1.48;;
23155;SDS011;11746;50.876;4.246;2023-02-28T11:28:37;3.17;;;1.60;;
23155;SDS011;11746;50.876;4.246;2023-02-28T11:33:40;4.13;;;1.48;;
23155;SDS011;11746;50.876;4.246;2023-02-28T11:36:14;4.32;;;1.88;;
23155;SDS011;11746;50.876;4.246;2023-02-28T11:38:43;3.13;;;1.53;;
23155;SDS011;11746;50.876;4.246;2023-02-28T11:41:22;2.78;;;1.52;;
23155;SDS011;11746;50.876;4.246;2023-02-28T11:46:38;3.88;;;1.75;;
23155;SDS011;11746;50.876;4.246;2023-02-28T11:51:45;2.60;;;1.30;;
23155;SDS011;11746;50.876;4.246;2023-02-28T11:54:26;4.85;;;1.90;;
23155;SDS011;11746;50.876;4.246;2023-02-28T12:00:00;2.55;;;1.85;;
23155;SDS011;11746;50.876;4.246;2023-02-28T12:02:52;3.42;;;2.00;;
23155;SDS011;11746;50.876;4.246;2023-02-28T12:05:45;2.70;;;1.50;;
23155;SDS011;11746;50.876;4.246;2023-02-28T12:08:32;3.13;;;2.00;;
23155;SDS011;11746;50.876;4.246;2023-02-28T12:11:06;2.60;;;1.60;;
23155;SDS011;11746;50.876;4.246;2023-02-28T12:13:54;4.90;;;1.70;;
23155;SDS011;11746;50.876;4.246;2023-02-28T12:16:37;3.67;;;1.70;;
23155;SDS011;11746;50.876;4.246;2023-02-28T12:27:40;3.95;;;1.88;;
23155;SDS011;11746;50.876;4.246;2023-02-28T12:32:45;3.28;;;2.13;;
23155;SDS011;11746;50.876;4.246;2023-02-28T12:38:12;3.05;;;2.00;;
23155;SDS011;11746;50.876;4.246;2023-02-28T12:40:48;5.55;;;2.30;;
23155;SDS011;11746;50.876;4.246;2023-02-28T12:43:22;4.28;;;1.92;;
23155;SDS011;11746;50.876;4.246;2023-02-28T12:46:02;3.33;;;1.80;;
23155;SDS011;11746;50.876;4.246;2023-02-28T12:48:40;3.05;;;1.77;;
23155;SDS011;11746;50.876;4.246;2023-02-28T12:51:11;2.72;;;1.58;;
23155;SDS011;11746;50.876;4.246;2023-02-28T12:58:49;4.70;;;2.17;;
23155;SDS011;11746;50.876;4.246;2023-02-28T13:07:32;2.58;;;1.65;;
23155;SDS011;11746;50.876;4.246;2023-02-28T13:10:20;4.45;;;1.80;;
23155;SDS011;11746;50.876;4.246;2023-02-28T13:12:50;4.75;;;2.05;;
23155;SDS011;11746;50.876;4.246;2023-02-28T13:15:24;4.40;;;1.65;;
23155;SDS011;11746;50.876;4.246;2023-02-28T13:17:54;3.47;;;1.80;;
23155;SDS011;11746;50.876;4.246;2023-02-28T13:20:26;3.65;;;1.90;;
23155;SDS011;11746;50.876;4.246;2023-02-28T13:22:59;8.20;;;2.13;;
23155;SDS011;11746;50.876;4.246;2023-02-28T13:27:59;2.35;;;1.60;;
23155;SDS011;11746;50.876;4.246;2023-02-28T13:33:30;3.47;;;2.00;;
23155;SDS011;11746;50.876;4.246;2023-02-28T13:38:35;2.50;;;1.58;;
23155;SDS011;11746;50.876;4.246;2023-02-28T13:44:00;3.28;;;1.50;;
23155;SDS011;11746;50.876;4.246;2023-02-28T13:46:30;6.97;;;2.15;;
23155;SDS011;11746;50.876;4.246;2023-02-28T13:49:14;5.05;;;1.80;;
23155;SDS011;11746;50.876;4.246;2023-02-28T13:51:53;2.70;;;1.73;;
23155;SDS011;11746;50.876;4.246;2023-02-28T13:54:44;14.25;;;2.40;;
23155;SDS011;11746;50.876;4.246;2023-02-28T14:07:49;6.47;;;1.67;;
23155;SDS011;11746;50.876;4.246;2023-02-28T14:16:05;6.38;;;1.90;;
23155;SDS011;11746;50.876;4.246;2023-02-28T14:18:33;3.58;;;1.75;;
23155;SDS011;11746;50.876;4.246;2023-02-28T14:31:49;3.97;;;2.13;;
23155;SDS011;11746;50.876;4.246;2023-02-28T14:37:41;6.65;;;3.22;;
23155;SDS011;11746;50.876;4.246;2023-02-28T14:40:32;5.35;;;2.30;;
23155;SDS011;11746;50.876;4.246;2023-02-28T14:43:03;6.07;;;3.00;;
23155;SDS011;11746;50.876;4.246;2023-02-28T14:45:30;3.88;;;1.98;;
23155;SDS011;11746;50.876;4.246;2023-02-28T14:47:57;6.05;;;2.10;;
23155;SDS011;11746;50.876;4.246;2023-02-28T14:50:31;5.63;;;3.03;;
23155;SDS011;11746;50.876;4.246;2023-02-28T14:55:29;6.22;;;1.98;;
23155;SDS011;11746;50.876;4.246;2023-02-28T14:58:02;7.03;;;3.67;;
23155;SDS011;11746;50.876;4.246;2023-02-28T15:00:34;4.22;;;2.67;;
23155;SDS011;11746;50.876;4.246;2023-02-28T15:03:22;6.85;;;3.70;;
23155;SDS011;11746;50.876;4.246;2023-02-28T15:05:57;3.88;;;2.15;;
23155;SDS011;11746;50.876;4.246;2023-02-28T15:08:27;3.40;;;2.00;;
23155;SDS011;11746;50.876;4.246;2023-02-28T15:13:57;2.97;;;2.25;;
23155;SDS011;11746;50.876;4.246;2023-02-28T15:16:28;6.22;;;2.53;;
23155;SDS011;11746;50.876;4.246;2023-02-28T15:19:02;4.68;;;2.58;;
23155;SDS011;11746;50.876;4.246;2023-02-28T15:21:59;5.30;;;2.95;;
23155;SDS011;11746;50.876;4.246;2023-02-28T15:24:42;3.78;;;2.47;;
23155;SDS011;11746;50.876;4.246;2023-02-28T15:27:18;5.60;;;2.08;;
23155;SDS011;11746;50.876;4.246;2023-02-28T15:29:54;3.80;;;1.90;;
23155;SDS011;11746;50.876;4.246;2023-02-28T15:34:52;4.45;;;2.00;;
23155;SDS011;11746;50.876;4.246;2023-02-28T15:43:00;3.10;;;2.20;;
23155;SDS011;11746;50.876;4.246;2023-02-28T15:46:07;2.60;;;2.00;;
23155;SDS011;11746;50.876;4.246;2023-02-28T15:48:36;4.68;;;2.20;;
23155;SDS011;11746;50.876;4.246;2023-02-28T15:51:09;3.00;;;1.85;;
23155;SDS011;11746;50.876;4.246;2023-02-28T15:56:30;4.18;;;2.80;;
23155;SDS011;11746;50.876;4.246;2023-02-28T15:58:59;5.22;;;2.38;;
23155;SDS011;11746;50.876;4.246;2023-02-28T16:01:29;3.95;;;2.70;;
23155;SDS011;11746;50.876;4.246;2023-02-28T16:04:01;2.97;;;2.33;;
23155;SDS011;11746;50.876;4.246;2023-02-28T16:06:38;6.00;;;2.78;;
23155;SDS011;11746;50.876;4.246;2023-02-28T16:09:09;4.72;;;2.17;;
23155;SDS011;11746;50.876;4.246;2023-02-28T16:11:43;3.80;;;2.60;;
23155;SDS011;11746;50.876;4.246;2023-02-28T16:14:16;3.83;;;2.78;;
23155;SDS011;11746;50.876;4.246;2023-02-28T16:16:51;4.82;;;2.40;;
23155;SDS011;11746;50.876;4.246;2023-02-28T16:19:22;3.42;;;2.35;;
23155;SDS011;11746;50.876;4.246;2023-02-28T16:21:48;3.60;;;2.40;;
23155;SDS011;11746;50.876;4.246;2023-02-28T16:24:15;3.63;;;2.33;;
23155;SDS011;11746;50.876;4.246;2023-02-28T16:26:41;5.22;;;2.30;;
23155;SDS011;11746;50.876;4.246;2023-02-28T16:29:13;4.78;;;2.70;;
23155;SDS011;11746;50.876;4.246;2023-02-28T16:31:45;4.65;;;2.72;;
23155;SDS011;11746;50.876;4.246;2023-02-28T16:34:11;3.85;;;2.55;;
23155;SDS011;11746;50.876;4.246;2023-02-28T16:36:38;4.60;;;2.50;;
23155;SDS011;11746;50.876;4.246;2023-02-28T16:39:03;6.18;;;2.50;;
23155;SDS011;11746;50.876;4.246;2023-02-28T16:41:30;3.60;;;2.83;;
23155;SDS011;11746;50.876;4.246;2023-02-28T16:43:56;5.35;;;2.70;;
23155;SDS011;11746;50.876;4.246;2023-02-28T16:46:30;10.70;;;3.00;;
23155;SDS011;11746;50.876;4.246;2023-02-28T16:49:00;4.57;;;2.72;;
23155;SDS011;11746;50.876;4.246;2023-02-28T16:51:26;7.57;;;2.50;;
23155;SDS011;11746;50.876;4.246;2023-02-28T16:53:52;4.70;;;3.08;;
23155;SDS011;11746;50.876;4.246;2023-02-28T16:56:21;8.23;;;2.83;;
23155;SDS011;11746;50.876;4.246;2023-02-28T16:58:49;7.07;;;2.80;;
23155;SDS011;11746;50.876;4.246;2023-02-28T17:01:16;5.47;;;3.13;;
23155;SDS011;11746;50.876;4.246;2023-02-28T17:03:47;5.00;;;3.55;;
23155;SDS011;11746;50.876;4.246;2023-02-28T17:06:24;4.75;;;2.40;;
23155;SDS011;11746;50.876;4.246;2023-02-28T17:08:52;3.40;;;2.20;;
23155;SDS011;11746;50.876;4.246;2023-02-28T17:11:19;5.80;;;2.70;;
23155;SDS011;11746;50.876;4.246;2023-02-28T17:13:45;7.40;;;4.63;;
23155;SDS011;11746;50.876;4.246;2023-02-28T17:18:50;5.25;;;3.60;;
23155;SDS011;11746;50.876;4.246;2023-02-28T17:21:17;6.05;;;3.35;;
23155;SDS011;11746;50.876;4.246;2023-02-28T17:23:43;3.83;;;2.63;;
23155;SDS011;11746;50.876;4.246;2023-02-28T17:26:11;5.35;;;3.35;;
23155;SDS011;11746;50.876;4.246;2023-02-28T17:28:39;4.78;;;2.80;;
23155;SDS011;11746;50.876;4.246;2023-02-28T17:31:05;5.13;;;2.70;;
23155;SDS011;11746;50.876;4.246;2023-02-28T17:33:31;20.90;;;13.77;;
23155;SDS011;11746;50.876;4.246;2023-02-28T17:35:57;9.05;;;7.40;;
23155;SDS011;11746;50.876;4.246;2023-02-28T17:38:22;6.45;;;4.32;;